Essen Mülheim Airport

EDLE · Nordrhein-Westfalen, Deutschland

METAR-Geschichte EDLE · Flughafen Essen/Mülheim

Unten siehst du die METARs der letzten paar Tage. Wähle ein Jahr, um ältere METARs ab dem Jahr 2007 zu durchsuchen.

9. Dezember 2022

Uhrzeit Code Wetter Temp. Sichtweite Wolkendecke Wind METAR/SPECI
08:50
V
-1 °C 8 km - 080° 080° 3 kt SPECI EDDL 090750Z AUTO 08003KT 8000 SCT017 M01/M02 Q1006 TEMPO 3000 BR
08:50
V
-1 °C 8 km - 080° 080° 3 kt METAR EDDL 090750Z AUTO 08003KT 8000 SCT017 M01/M02 Q1006 TEMPO 3000 BR
08:20
V
-1 °C 10 km+ - Var Var 2 kt METAR EDDL 090720Z AUTO VRB02KT CAVOK M01/M01 Q1006 TEMPO 3000 BR
07:50
M
2 °C 10 km+ 1.900 ft Var Var 2 kt METAR EDDL 090650Z AUTO VRB02KT 9999 BKN019 02/M00 Q1006 NOSIG
07:20
M
2 °C 10 km+ 1.700 ft Var Var 2 kt METAR EDDL 090620Z AUTO VRB02KT 9999 OVC017 02/M00 Q1006 TEMPO BKN013
06:50
M
2 °C 10 km+ 1.600 ft 220° 220° 3 kt METAR EDDL 090550Z AUTO 22003KT 200V260 9999 BKN016 02/M00 Q1006 TEMPO BKN013
06:20
M
2 °C 10 km+ 1.600 ft 240° 240° 3 kt METAR EDDL 090520Z AUTO 24003KT 9999 OVC016 02/M01 Q1006 TEMPO BKN013
05:50
M
1 °C 10 km+ 1.600 ft 220° 220° 4 kt METAR EDDL 090450Z AUTO 22004KT 9999 BKN016 01/M00 Q1006 TEMPO BKN012
05:20
M
2 °C 10 km+ 1.500 ft 210° 210° 3 kt METAR EDDL 090420Z AUTO 21003KT 9999 BKN015 02/M00 Q1006 TEMPO BKN012
04:50
M
2 °C 10 km+ 1.400 ft 230° 230° 4 kt METAR EDDL 090350Z AUTO 23004KT 9999 BKN014 02/M00 Q1006 NOSIG
04:20
M
2 °C 10 km+ 1.300 ft 240° 240° 5 kt METAR EDDL 090320Z AUTO 24005KT 9999 OVC013 02/00 Q1006 NOSIG
03:50
M
2 °C 10 km+ 1.400 ft 230° 230° 5 kt METAR EDDL 090250Z AUTO 23005KT 9999 OVC014 02/M00 Q1006 NOSIG
03:20
M
2 °C 10 km+ 1.400 ft 200° 200° 6 kt METAR EDDL 090220Z AUTO 20006KT 9999 OVC014 02/00 Q1007 NOSIG
02:50
M
3 °C 10 km+ 1.400 ft 210° 210° 6 kt METAR EDDL 090150Z AUTO 21006KT 9999 OVC014 03/00 Q1007 NOSIG
02:20
M
2 °C 10 km+ 1.400 ft 200° 200° 4 kt METAR EDDL 090120Z AUTO 20004KT 170V230 9999 OVC014 02/01 Q1007 NOSIG
01:50
M
3 °C 10 km+ 1.500 ft 220° 220° 6 kt METAR EDDL 090050Z AUTO 22006KT 9999 OVC015 03/01 Q1007 TEMPO BKN012
01:20
M
3 °C 10 km+ 1.500 ft 200° 200° 4 kt METAR EDDL 090020Z AUTO 20004KT 9999 BKN015 OVC043 03/01 Q1007 TEMPO BKN012
00:50
M
3 °C 10 km+ 1.500 ft 190° 190° 5 kt METAR EDDL 082350Z AUTO 19005KT 9999 OVC015 03/01 Q1007 TEMPO BKN012
00:20
M
3 °C 10 km+ 1.500 ft 180° 180° 5 kt METAR EDDL 082320Z AUTO 18005KT 9999 BKN015 BKN043 03/01 Q1007 TEMPO BKN012

8. Dezember 2022

Uhrzeit Code Wetter Temp. Sichtweite Wolkendecke Wind METAR/SPECI
23:50
M
3 °C 10 km+ 1.600 ft 180° 180° 6 kt METAR EDDL 082250Z AUTO 18006KT 9999 BKN016 OVC041 03/01 Q1007 TEMPO BKN012
23:20
V
2 °C 10 km+ 3.800 ft 180° 180° 4 kt METAR EDDL 082220Z AUTO 18004KT 9999 FEW004 BKN038 OVC045 02/01 Q1007 NOSIG
22:50
M
2 °C 10 km+ 2.900 ft 210° 210° 4 kt METAR EDDL 082150Z AUTO 21004KT 9999 FEW003 BKN029 OVC043 02/01 Q1007 NOSIG
22:20
M
1 °C 10 km+ 2.700 ft 230° 230° 3 kt METAR EDDL 082120Z AUTO 23003KT 9999 BKN027 BKN032 01/00 Q1007 NOSIG
21:50
M
1 °C 10 km+ 2.400 ft 240° 240° 4 kt METAR EDDL 082050Z AUTO 24004KT 9999 FEW001 BKN024 BKN033 01/00 Q1007 NOSIG
21:20
V
1 °C 10 km+ - 240° 240° 4 kt METAR EDDL 082020Z AUTO 24004KT CAVOK 01/M00 Q1007 NOSIG
20:50
M
3 °C 10 km+ 2.600 ft 260° 260° 6 kt METAR EDDL 081950Z AUTO 26006KT 9999 FEW013 BKN026 03/01 Q1007 NOSIG
20:20
M
4 °C 10 km+ 1.500 ft 240° 240° 5 kt METAR EDDL 081920Z AUTO 24005KT 220V280 9999 BKN015 04/02 Q1007 BECMG BKN012
19:50
M
4 °C 10 km+ 1.600 ft 230° 230° 6 kt METAR EDDL 081850Z AUTO 23006KT 9999 VCSH BKN016 BKN021 FEW///CB 04/02 Q1007 TEMPO BKN014
19:20
M
4 °C 10 km+ 1.600 ft 250° 250° 5 kt METAR EDDL 081820Z AUTO 25005KT 9999 BKN016 BKN020 04/01 Q1007 TEMPO BKN014
18:50
M
4 °C 10 km+ 1.700 ft 240° 240° 5 kt METAR EDDL 081750Z AUTO 24005KT 9999 OVC017 04/01 Q1007 NOSIG
18:20
M
4 °C 10 km+ 1.900 ft 230° 230° 6 kt METAR EDDL 081720Z AUTO 23006KT 9999 BKN019 BKN028 04/01 Q1007 NOSIG
17:50
M
4 °C 10 km+ 2.700 ft 220° 220° 7 kt METAR EDDL 081650Z AUTO 22007KT 9999 SCT017 OVC027 04/02 Q1007 NOSIG
17:20
M
4 °C 10 km+ 1.700 ft 230° 230° 8 kt METAR EDDL 081620Z AUTO 23008KT 9999 BKN017 BKN028 04/01 Q1007 NOSIG
16:50
M
4 °C 10 km+ 1.900 ft 230° 230° 8 kt METAR EDDL 081550Z AUTO 23008KT 9999 BKN019 BKN025 04/01 Q1007 NOSIG
16:20
V
4 °C 10 km+ - 230° 230° 9 kt METAR EDDL 081520Z AUTO 23009KT 9999 SCT018 04/01 Q1007 NOSIG
15:50
M
4 °C 10 km+ 2.700 ft 240° 240° 6 kt METAR EDDL 081450Z AUTO 24006KT 9999 BKN027 04/01 Q1007 NOSIG
15:20
M
4 °C 10 km+ 2.200 ft 260° 260° 5 kt METAR EDDL 081420Z AUTO 26005KT 230V290 9999 SCT016 BKN022 OVC028 04/02 Q1007 NOSIG
14:50
M
4 °C 10 km+ 2.100 ft 240° 240° 7 kt METAR EDDL 081350Z AUTO 24007KT 9999 VCSH SCT016 BKN021 FEW///TCU 04/02 Q1007 TEMPO BKN014
14:20
M
4 °C 10 km+ 2.000 ft 260° 260° 7 kt METAR EDDL 081320Z AUTO 26007KT 9999 -SHRA SCT015 BKN020 FEW///TCU 04/02 Q1007 TEMPO BKN014
13:50
M
4 °C 10 km+ 1.500 ft 250° 250° 10 kt METAR EDDL 081250Z AUTO 25010KT 9999 -SHRA BKN015 BKN021 OVC046 FEW///TCU 04/02 Q1007 TEMPO BKN014
13:20
M
4 °C 10 km+ 1.400 ft 230° 230° 10 kt METAR EDDL 081220Z AUTO 23010KT 9999 -SHRA BKN014 BKN021 OVC034 FEW///TCU 04/02 Q1007 TEMPO BKN015
12:50
V
4 °C 10 km+ 3.300 ft 240° 240° 10 kt METAR EDDL 081150Z AUTO 24010KT 9999 -RA SCT012 BKN033 BKN044 04/02 Q1007 TEMPO BKN012
12:20
M
4 °C 10 km+ 1.300 ft 240° 240° 10 kt METAR EDDL 081120Z AUTO 24010KT 9999 BKN013 BKN019 BKN038 04/02 Q1007 TEMPO BKN015
11:50
M
4 °C 10 km+ 1.100 ft 240° 240° 10 kt METAR EDDL 081050Z AUTO 24010KT 9999 -SHRA BKN011 BKN017 FEW///TCU 04/02 Q1008 RESHRA TEMPO BKN015
11:20
M
4 °C 10 km+ 1.100 ft 240° 240° 10 kt METAR EDDL 081020Z AUTO 24010KT 9999 -SHRA BKN011 FEW///TCU 04/03 Q1008 NOSIG
10:50
M
4 °C 10 km+ 1.000 ft 240° 240° 10 kt METAR EDDL 080950Z AUTO 24010KT 9999 -RA OVC010 04/02 Q1008 NOSIG
10:20
I
4 °C 8 km 900 ft 230° 230° 7 kt METAR EDDL 080920Z AUTO 23007KT 8000 -RA BKN009 04/03 Q1008 NOSIG
09:50
I
3 °C 8 km 900 ft 240° 240° 8 kt METAR EDDL 080850Z AUTO 24008KT 8000 -RA BKN009 03/02 Q1008 NOSIG
09:20
M
3 °C 10 km+ 1.000 ft 250° 250° 10 kt METAR EDDL 080820Z AUTO 25010KT 9999 -RA OVC010 03/02 Q1008 NOSIG
08:50
M
4 °C 10 km+ 1.000 ft 250° 250° 10 kt METAR EDDL 080750Z AUTO 25010KT 9999 -RA BKN010 04/03 Q1008 NOSIG
08:20
M
4 °C 10 km+ 1.100 ft 250° 250° 12 kt METAR EDDL 080720Z AUTO 25012KT 9999 -RA BKN011 04/02 Q1008 BECMG BKN009
07:50
I
4 °C 9 km 900 ft 250° 250° 10 kt METAR EDDL 080650Z AUTO 25010KT 9000 -RA BKN009 OVC014 04/03 Q1008 NOSIG
07:20
I
4 °C 8 km 900 ft 240° 240° 9 kt METAR EDDL 080620Z AUTO 24009KT 8000 -RA BKN009 OVC014 04/03 Q1008 NOSIG
06:50
I
4 °C 10 km+ 900 ft 250° 250° 9 kt METAR EDDL 080550Z AUTO 25009KT 9999 -RA BKN009 04/03 Q1008 NOSIG
06:20
I
4 °C 10 km+ 900 ft 250° 250° 8 kt METAR EDDL 080520Z AUTO 25008KT 9999 -RA OVC009 04/03 Q1008 NOSIG
05:50
I
4 °C 10 km+ 900 ft 240° 240° 10 kt METAR EDDL 080450Z AUTO 24010KT 9999 -RA OVC009 04/02 Q1008 NOSIG
05:20
M
4 °C 10 km+ 1.000 ft 230° 230° 8 kt METAR EDDL 080420Z AUTO 23008KT 9999 OVC010 04/02 Q1009 TEMPO BKN008
04:50
M
4 °C 10 km+ 1.000 ft 250° 250° 10 kt METAR EDDL 080350Z AUTO 25010KT 9999 OVC010 04/02 Q1009 TEMPO BKN008
04:20
I
4 °C 10 km+ 900 ft 240° 240° 9 kt METAR EDDL 080320Z AUTO 24009KT 9999 OVC009 04/02 Q1009 NOSIG
03:50
I
4 °C 10 km+ 900 ft 240° 240° 9 kt METAR EDDL 080250Z AUTO 24009KT 9999 OVC009 04/03 Q1010 NOSIG
03:20
I
4 °C 10 km+ 800 ft 230° 230° 8 kt METAR EDDL 080220Z AUTO 23008KT 9999 OVC008 04/03 Q1010 NOSIG
02:50
I
4 °C 10 km+ 700 ft 240° 240° 8 kt METAR EDDL 080150Z AUTO 24008KT 9999 OVC007 04/03 Q1010 NOSIG
02:20
I
3 °C 8 km 800 ft 230° 230° 5 kt METAR EDDL 080120Z AUTO 23005KT 8000 BKN008 03/02 Q1010 NOSIG
01:50
V
3 °C 9 km - 230° 230° 6 kt METAR EDDL 080050Z AUTO 23006KT 9000 SCT008 03/02 Q1010 TEMPO BKN009
01:20
V
4 °C 9 km - 240° 240° 6 kt METAR EDDL 080020Z AUTO 24006KT 9000 SCT009 04/02 Q1011 TEMPO BKN009
00:50
V
3 °C 9 km - 230° 230° 7 kt METAR EDDL 072350Z AUTO 23007KT 9000 SCT009 03/03 Q1011 TEMPO BKN009
00:20
V
4 °C 10 km+ - 240° 240° 7 kt METAR EDDL 072320Z AUTO 24007KT 9999 SCT009 04/02 Q1011 TEMPO BKN010

7. Dezember 2022

Uhrzeit Code Wetter Temp. Sichtweite Wolkendecke Wind METAR/SPECI
23:50
V
4 °C 10 km+ - 250° 250° 5 kt METAR EDDL 072250Z AUTO 25005KT 9999 FEW011 04/03 Q1012 TEMPO BKN010
23:20
V
4 °C 10 km+ - 250° 250° 6 kt METAR EDDL 072220Z AUTO 25006KT 9999 SCT042 04/03 Q1012 TEMPO BKN010
22:50
V
4 °C 10 km+ - 240° 240° 6 kt METAR EDDL 072150Z AUTO 24006KT CAVOK 04/03 Q1012 NOSIG
22:20
V
4 °C 10 km+ - 250° 250° 6 kt METAR EDDL 072120Z AUTO 25006KT 9999 FEW001 04/03 Q1012 NOSIG
21:50
V
4 °C 10 km+ - 250° 250° 8 kt METAR EDDL 072050Z AUTO 25008KT 9999 FEW001 04/03 Q1012 NOSIG
21:20
V
4 °C 10 km+ - 250° 250° 6 kt METAR EDDL 072020Z AUTO 25006KT CAVOK 04/03 Q1013 NOSIG
20:50
V
4 °C 10 km+ - 260° 260° 5 kt METAR EDDL 071950Z AUTO 26005KT 9999 FEW008 04/03 Q1013 NOSIG
20:20
V
4 °C 10 km+ - 250° 250° 6 kt METAR EDDL 071920Z AUTO 25006KT CAVOK 04/03 Q1013 NOSIG
19:50
V
4 °C 10 km+ - 240° 240° 5 kt METAR EDDL 071850Z AUTO 24005KT 9999 SCT011 04/03 Q1013 TEMPO BKN010
19:20
V
5 °C 10 km+ - 250° 250° 6 kt METAR EDDL 071820Z AUTO 25006KT 9999 SCT015 05/03 Q1013 TEMPO BKN012
18:50
V
5 °C 10 km+ 4.900 ft 250° 250° 7 kt METAR EDDL 071750Z AUTO 25007KT 9999 VCSH SCT033 OVC049 FEW///TCU 05/03 Q1013 NOSIG
18:20
V
5 °C 10 km+ - 260° 260° 6 kt METAR EDDL 071720Z AUTO 26006KT 9999 -SHRA FEW015 SCT043 FEW///TCU 05/03 Q1014 NOSIG
17:50
V
5 °C 10 km+ - 230° 230° 6 kt METAR EDDL 071650Z AUTO 23006KT CAVOK 05/03 Q1014 NOSIG
17:20
V
6 °C 10 km+ - 260° 260° 6 kt METAR EDDL 071620Z AUTO 26006KT 9999 FEW047 06/03 Q1014 NOSIG
16:50
M
6 °C 10 km+ 2.100 ft 270° 270° 6 kt METAR EDDL 071550Z AUTO 27006KT 9999 BKN021 06/03 Q1014 NOSIG
16:20
V
5 °C 10 km+ - 250° 250° 6 kt METAR EDDL 071520Z AUTO 25006KT CAVOK 05/03 Q1014 NOSIG
15:50
V
6 °C 10 km+ - 270° 270° 6 kt METAR EDDL 071450Z AUTO 27006KT 9999 FEW028 06/03 Q1014 NOSIG
15:20
V
6 °C 10 km+ - 280° 280° 6 kt METAR EDDL 071420Z AUTO 28006KT 9999 FEW035 SCT047 06/02 Q1015 NOSIG
14:50
V
7 °C 10 km+ 4.500 ft 280° 280° 7 kt METAR EDDL 071350Z AUTO 28007KT 9999 BKN045 07/03 Q1015 NOSIG
14:20
V
6 °C 10 km+ 3.400 ft 290° 290° 6 kt METAR EDDL 071320Z AUTO 29006KT 9999 VCSH FEW024 BKN034 FEW///CB 06/03 Q1015 NOSIG
13:50
V
6 °C 10 km+ 4.400 ft 290° 290° 9 kt METAR EDDL 071250Z AUTO 29009KT 9999 VCSH FEW014 BKN044 FEW///TCU 06/03 Q1015 NOSIG
13:20
V
6 °C 10 km+ 3.900 ft 280° 280° 9 kt METAR EDDL 071220Z AUTO 28009KT 9999 SCT016 BKN039 06/03 Q1016 NOSIG
12:50
V
6 °C 10 km+ - 280° 280° 7 kt METAR EDDL 071150Z AUTO 28007KT 250V320 9999 FEW016 06/03 Q1016 NOSIG
12:20
V
6 °C 10 km+ 4.000 ft 280° 280° 8 kt METAR EDDL 071120Z AUTO 28008KT 250V320 9999 FEW027 BKN040 06/03 Q1016 NOSIG
11:50
V
5 °C 10 km+ 4.100 ft 270° 270° 8 kt METAR EDDL 071050Z AUTO 27008KT 240V300 9999 FEW007 BKN041 05/03 Q1016 NOSIG
11:20
V
5 °C 10 km+ 3.900 ft 260° 260° 7 kt METAR EDDL 071020Z AUTO 26007KT 9999 SCT032 BKN039 BKN046 05/03 Q1017 NOSIG
10:50
V
5 °C 10 km+ 4.200 ft 260° 260° 7 kt METAR EDDL 070950Z AUTO 26007KT 9999 BKN042 05/03 Q1017 NOSIG
10:20
V
5 °C 10 km+ - 260° 260° 6 kt METAR EDDL 070920Z AUTO 26006KT 9999 FEW001 05/03 Q1017 NOSIG
09:50
V
3 °C 10 km+ 4.800 ft 250° 250° 6 kt METAR EDDL 070850Z AUTO 25006KT 9999 FEW030 BKN048 03/03 Q1017 NOSIG
09:20
V
4 °C 10 km+ 3.400 ft 260° 260° 3 kt METAR EDDL 070820Z AUTO 26003KT 220V310 9999 FEW029 BKN034 04/03 Q1017 BECMG 27008KT
08:50
V
3 °C 10 km+ - Var Var 2 kt METAR EDDL 070750Z AUTO VRB02KT 9999 SCT039 SCT049 03/03 Q1017 NOSIG
08:20
V
4 °C 10 km+ - 260° 260° 5 kt METAR EDDL 070720Z AUTO 26005KT 9999 SCT041 04/03 Q1016 NOSIG
07:50
V
4 °C 10 km+ 4.800 ft 260° 260° 5 kt METAR EDDL 070650Z AUTO 26005KT 9999 SCT034 BKN048 04/03 Q1016 NOSIG
07:20
V
4 °C 10 km+ 4.300 ft 270° 270° 4 kt METAR EDDL 070620Z AUTO 27004KT 9999 FEW029 BKN043 04/03 Q1016 NOSIG
06:50
V
4 °C 10 km+ 4.400 ft 280° 280° 4 kt METAR EDDL 070550Z AUTO 28004KT 240V300 9999 FEW023 BKN044 04/03 Q1016 NOSIG
06:20
V
4 °C 10 km+ 4.100 ft 290° 290° 6 kt METAR EDDL 070520Z AUTO 29006KT 9999 FEW006 BKN041 04/03 Q1016 NOSIG
05:50
V
4 °C 9 km 4.000 ft 260° 260° 6 kt METAR EDDL 070450Z AUTO 26006KT 9000 FEW006 BKN040 04/03 Q1016 NOSIG
05:20
M
4 °C 7 km 3.200 ft 280° 280° 5 kt METAR EDDL 070420Z AUTO 28005KT 240V300 7000 SCT005 BKN032 BKN040 04/03 Q1017 TEMPO BKN005
04:50
I
4 °C 8 km 600 ft 270° 270° 5 kt METAR EDDL 070350Z AUTO 27005KT 230V290 8000 BKN006 BKN031 04/03 Q1017 BECMG SCT006
04:20
I
4 °C 7 km 600 ft 280° 280° 5 kt METAR EDDL 070320Z AUTO 28005KT 250V310 7000 VCSH BKN006 BKN032 BKN049 FEW///TCU 04/04 Q1017 BECMG SCT006
03:50
I
4 °C 7 km 600 ft 270° 270° 6 kt METAR EDDL 070250Z AUTO 27006KT 7000 BKN006 BKN043 04/04 Q1017 NOSIG
03:20
I
4 °C 7 km 600 ft 260° 260° 6 kt METAR EDDL 070220Z AUTO 26006KT 7000 BKN006 BKN036 BKN047 04/04 Q1017 NOSIG
02:50
I
5 °C 8 km 600 ft 260° 260° 6 kt METAR EDDL 070150Z AUTO 26006KT 8000 BKN006 BKN032 05/04 Q1017 NOSIG
02:20
I
5 °C 8 km 700 ft 270° 270° 6 kt METAR EDDL 070120Z AUTO 27006KT 8000 BKN007 BKN020 OVC034 05/04 Q1017 NOSIG
01:50
I
5 °C 8 km 700 ft 260° 260° 6 kt METAR EDDL 070050Z AUTO 26006KT 8000 BKN007 OVC032 05/04 Q1017 NOSIG
01:20
V
5 °C 9 km 3.200 ft 280° 280° 5 kt METAR EDDL 070020Z AUTO 28005KT 9000 FEW006 OVC032 05/04 Q1017 TEMPO BKN010
00:50
V
5 °C 8 km 3.500 ft 250° 250° 6 kt METAR EDDL 062350Z AUTO 25006KT 8000 VCSH FEW006 SCT029 BKN035 FEW///CB 05/04 Q1017 TEMPO BKN010
00:20
I
5 °C 8 km 800 ft 260° 260° 7 kt METAR EDDL 062320Z AUTO 26007KT 8000 -SHRA BKN008 BKN023 FEW///CB 05/04 Q1017 TEMPO SCT008

6. Dezember 2022

Uhrzeit Code Wetter Temp. Sichtweite Wolkendecke Wind METAR/SPECI
23:50
I
5 °C 10 km+ 800 ft 250° 250° 5 kt METAR EDDL 062250Z AUTO 25005KT 9999 OVC008 05/04 Q1017 NOSIG
23:20
I
5 °C 10 km+ 900 ft 250° 250° 5 kt METAR EDDL 062220Z AUTO 25005KT 9999 -SHRA BKN009 BKN031 BKN039 FEW///CB 05/04 Q1017 TEMPO BKN010
22:50
M
5 °C 10 km+ 2.800 ft 260° 260° 6 kt METAR EDDL 062150Z AUTO 26006KT 9999 SCT010 BKN028 BKN035 05/04 Q1017 TEMPO BKN010
22:20
V
5 °C 10 km+ 4.100 ft 250° 250° 7 kt METAR EDDL 062120Z AUTO 25007KT 9999 FEW003 OVC041 05/03 Q1017 TEMPO BKN010
21:50
V
5 °C 10 km+ 3.100 ft 240° 240° 8 kt METAR EDDL 062050Z AUTO 24008KT 9999 FEW002 OVC031 05/03 Q1017 NOSIG
21:20
M
5 °C 10 km+ 1.600 ft 240° 240° 8 kt METAR EDDL 062020Z AUTO 24008KT 9999 BKN016 05/03 Q1018 NOSIG
20:50
M
5 °C 10 km+ 2.300 ft 240° 240° 7 kt METAR EDDL 061950Z AUTO 24007KT 9999 BKN023 OVC027 05/03 Q1018 NOSIG
20:20
M
5 °C 10 km+ 2.500 ft 240° 240° 6 kt METAR EDDL 061920Z AUTO 24006KT 9999 FEW014 BKN025 OVC034 05/03 Q1018 NOSIG
19:50
M
5 °C 10 km+ 2.800 ft 240° 240° 6 kt METAR EDDL 061850Z AUTO 24006KT 9999 FEW023 BKN028 OVC036 05/03 Q1018 NOSIG
19:20
M
5 °C 10 km+ 2.800 ft 240° 240° 6 kt METAR EDDL 061820Z AUTO 24006KT 9999 BKN028 05/03 Q1018 NOSIG
18:50
M
5 °C 10 km+ 2.800 ft 250° 250° 5 kt METAR EDDL 061750Z AUTO 25005KT 9999 OVC028 05/03 Q1018 NOSIG
18:20
V
5 °C 10 km+ 3.100 ft 240° 240° 5 kt METAR EDDL 061720Z AUTO 24005KT 9999 OVC031 05/03 Q1018 NOSIG
17:50
V
5 °C 10 km+ 3.000 ft 250° 250° 3 kt METAR EDDL 061650Z AUTO 25003KT 9999 OVC030 05/03 Q1018 NOSIG
17:20
V
5 °C 10 km+ 3.200 ft 260° 260° 4 kt METAR EDDL 061620Z AUTO 26004KT 9999 BKN032 05/03 Q1018 NOSIG
16:50
V
5 °C 10 km+ 3.500 ft 250° 250° 5 kt METAR EDDL 061550Z AUTO 25005KT 9999 OVC035 05/03 Q1018 NOSIG
16:20
V
5 °C 10 km+ 3.700 ft 260° 260° 3 kt METAR EDDL 061520Z AUTO 26003KT 9999 OVC037 05/03 Q1018 NOSIG
15:50
V
5 °C 10 km+ 4.300 ft 280° 280° 4 kt METAR EDDL 061450Z AUTO 28004KT 9999 BKN043 05/03 Q1018 NOSIG
15:20
V
5 °C 10 km+ 4.800 ft 290° 290° 5 kt METAR EDDL 061420Z AUTO 29005KT 9999 FEW020 SCT040 BKN048 05/03 Q1018 NOSIG
14:50
V
6 °C 10 km+ - 280° 280° 4 kt METAR EDDL 061350Z AUTO 28004KT 9999 FEW017 06/03 Q1018 NOSIG
14:20
V
5 °C 10 km+ - 300° 300° 6 kt METAR EDDL 061320Z AUTO 30006KT 9999 FEW012 SCT019 05/03 Q1019 NOSIG
13:50
M
6 °C 10 km+ 2.500 ft 290° 290° 7 kt METAR EDDL 061250Z AUTO 29007KT 9999 FEW011 BKN025 06/04 Q1019 NOSIG
13:20
V
6 °C 10 km+ - 280° 280° 5 kt METAR EDDL 061220Z AUTO 28005KT 9999 FEW010 06/04 Q1019 NOSIG
12:50
I
5 °C 10 km+ 900 ft 300° 300° 6 kt METAR EDDL 061150Z AUTO 30006KT 9999 BKN009 BKN015 05/04 Q1019 BECMG SCT010 BKN020
12:20
M
5 °C 10 km+ 1.300 ft 310° 310° 5 kt METAR EDDL 061120Z AUTO 31005KT 9999 SCT008 BKN013 05/04 Q1019 TEMPO BKN008
11:50
I
5 °C 10 km+ 800 ft 310° 310° 4 kt METAR EDDL 061050Z AUTO 31004KT 280V340 9999 BKN008 BKN016 OVC048 05/04 Q1019 BECMG SCT010 BKN020
11:20
I
5 °C 10 km+ 700 ft 320° 320° 5 kt METAR EDDL 061020Z AUTO 32005KT 9999 BKN007 BKN012 OVC024 05/04 Q1019 BECMG SCT010 BKN020
10:50
M
5 °C 10 km+ 1.300 ft 320° 320° 5 kt METAR EDDL 060950Z AUTO 32005KT 9999 SCT006 BKN013 OVC043 05/04 Q1019 BECMG SCT010 BKN020

Wir und Dritte verfolgen dein Internetverhalten auf unserer Website mit Cookies. Wenn du fortfährst, gehen wir davon aus, dass du mit unserer Cookie-Richtlinie einverstanden bist.